createdAt,value
2023-05-08T00:01:57.931Z,9.33
2023-05-08T00:04:26.209Z,7.43
2023-05-08T00:06:54.392Z,7.33
2023-05-08T00:09:22.428Z,11.67
2023-05-08T00:11:50.531Z,7.63
2023-05-08T00:14:20.037Z,9.70
2023-05-08T00:16:48.183Z,9.40
2023-05-08T00:19:16.278Z,8.37
2023-05-08T00:21:44.344Z,7.03
2023-05-08T00:24:12.528Z,6.67
2023-05-08T00:26:42.074Z,7.63
2023-05-08T00:29:10.251Z,8.03
2023-05-08T00:31:40.232Z,8.13
2023-05-08T00:34:08.305Z,7.03
2023-05-08T00:36:36.366Z,7.50
2023-05-08T00:39:04.717Z,6.57
2023-05-08T00:41:32.815Z,10.50
2023-05-08T00:44:00.946Z,9.43
2023-05-08T00:46:29.133Z,7.07
2023-05-08T00:48:58.771Z,10.73
2023-05-08T00:51:27.859Z,8.13
2023-05-08T00:53:56.485Z,7.07
2023-05-08T00:56:26.158Z,8.83
2023-05-08T00:58:54.915Z,8.27
2023-05-08T01:01:23.786Z,7.80
2023-05-08T01:03:52.178Z,8.57
2023-05-08T01:06:21.863Z,8.90
2023-05-08T01:08:50.671Z,6.83
2023-05-08T01:11:32.527Z,10.97
2023-05-08T01:14:10.918Z,7.77
2023-05-08T01:16:45.318Z,10.17
2023-05-08T01:19:38.367Z,8.47
2023-05-08T01:22:16.528Z,9.13
2023-05-08T01:25:09.943Z,9.80
2023-05-08T01:28:01.962Z,8.43
2023-05-08T01:31:09.047Z,8.33
2023-05-08T01:33:44.197Z,7.67
2023-05-08T01:36:19.874Z,13.83
2023-05-08T01:38:57.348Z,11.30
2023-05-08T01:41:29.314Z,9.87
2023-05-08T01:44:07.503Z,8.83
2023-05-08T01:46:35.824Z,9.33
2023-05-08T01:49:09.283Z,11.90
2023-05-08T01:51:42.612Z,13.60
2023-05-08T01:54:14.158Z,10.57
2023-05-08T01:56:44.866Z,9.87
2023-05-08T01:59:16.035Z,9.73
2023-05-08T02:01:48.118Z,10.03
2023-05-08T02:04:19.259Z,11.30
2023-05-08T02:06:47.790Z,11.07
2023-05-08T02:09:16.652Z,10.87
2023-05-08T02:11:47.547Z,10.50
2023-05-08T02:14:21.191Z,12.80
2023-05-08T02:16:51.964Z,14.43
2023-05-08T02:19:24.689Z,12.47
2023-05-08T02:21:54.165Z,13.60
2023-05-08T02:24:23.818Z,9.80
2023-05-08T02:26:55.367Z,13.40
2023-05-08T02:29:25.351Z,12.37
2023-05-08T02:31:56.238Z,11.17
2023-05-08T02:34:26.665Z,11.10
2023-05-08T02:36:55.929Z,10.13
2023-05-08T02:39:30.033Z,10.83
2023-05-08T02:41:58.766Z,12.17
2023-05-08T02:44:27.149Z,9.50
2023-05-08T02:46:59.996Z,12.63
2023-05-08T02:49:34.549Z,13.57
2023-05-08T02:52:11.517Z,12.43
2023-05-08T02:54:48.686Z,11.47
2023-05-08T02:57:33.169Z,12.07
2023-05-08T03:00:04.971Z,11.33
2023-05-08T03:02:39.221Z,11.40
2023-05-08T03:05:16.332Z,11.73
2023-05-08T03:07:46.363Z,11.30
2023-05-08T03:10:16.812Z,10.87
2023-05-08T03:12:47.717Z,10.80
2023-05-08T03:15:23.997Z,12.43
2023-05-08T03:17:56.204Z,10.93
2023-05-08T03:20:29.710Z,10.93
2023-05-08T03:22:58.408Z,16.57
2023-05-08T03:25:27.884Z,13.47
2023-05-08T03:27:57.548Z,12.23
2023-05-08T03:30:28.004Z,12.57
2023-05-08T03:33:05.677Z,11.07
2023-05-08T03:35:37.253Z,11.53
2023-05-08T03:38:06.764Z,12.57
2023-05-08T03:40:38.739Z,11.37
2023-05-08T03:43:08.604Z,11.93
2023-05-08T03:45:37.893Z,11.20
2023-05-08T03:48:07.566Z,13.23
2023-05-08T03:50:39.520Z,13.93
2023-05-08T03:53:10.566Z,11.63
2023-05-08T03:55:39.444Z,15.20
2023-05-08T03:58:18.930Z,11.27
2023-05-08T04:01:00.053Z,13.37
2023-05-08T04:03:42.494Z,15.43
2023-05-08T04:06:16.114Z,14.23
2023-05-08T04:08:53.713Z,13.87
2023-05-08T04:11:31.833Z,12.60
2023-05-08T04:14:05.073Z,13.73
2023-05-08T04:16:38.758Z,13.90
2023-05-08T04:19:12.937Z,15.50
2023-05-08T04:21:44.540Z,11.83
2023-05-08T04:24:16.533Z,13.90
2023-05-08T04:26:47.361Z,14.80
2023-05-08T04:29:18.975Z,14.83
2023-05-08T04:31:48.253Z,14.17
2023-05-08T04:34:17.200Z,14.50
2023-05-08T04:36:48.624Z,13.97
2023-05-08T04:39:16.723Z,15.77
2023-05-08T04:41:44.885Z,13.70
2023-05-08T04:44:14.327Z,14.07
2023-05-08T04:46:42.567Z,14.93
2023-05-08T04:49:10.991Z,18.10
2023-05-08T04:51:39.097Z,15.77
2023-05-08T04:54:08.554Z,15.23
2023-05-08T04:56:36.837Z,12.77
2023-05-08T04:59:05.165Z,16.17
2023-05-08T05:01:33.651Z,16.60
2023-05-08T05:04:02.060Z,15.63
2023-05-08T05:06:31.341Z,17.07
2023-05-08T05:08:59.395Z,16.15
2023-05-08T05:11:29.101Z,15.00
2023-05-08T05:13:57.212Z,17.73
2023-05-08T05:16:25.632Z,17.30
2023-05-08T05:18:53.936Z,15.87
2023-05-08T05:21:22.102Z,16.40
2023-05-08T05:23:50.377Z,16.27
2023-05-08T05:26:18.595Z,17.13
2023-05-08T05:28:48.653Z,22.40
2023-05-08T05:31:16.802Z,19.37
2023-05-08T05:33:44.911Z,17.80
2023-05-08T05:36:13.140Z,18.33
2023-05-08T05:38:41.449Z,18.07
2023-05-08T05:41:09.600Z,15.23
2023-05-08T05:43:37.701Z,16.63
2023-05-08T05:46:08.066Z,16.47
2023-05-08T05:48:36.819Z,18.47
2023-05-08T05:51:06.319Z,21.80
2023-05-08T05:53:34.789Z,15.87
2023-05-08T05:56:03.405Z,16.80
2023-05-08T05:58:33.264Z,17.90
2023-05-08T06:01:02.259Z,18.20
2023-05-08T06:03:32.966Z,16.27
2023-05-08T06:06:01.418Z,16.23
2023-05-08T06:08:29.534Z,15.63
2023-05-08T06:10:57.677Z,19.87
2023-05-08T06:13:26.026Z,19.40
2023-05-08T06:15:57.108Z,16.87
2023-05-08T06:18:26.132Z,18.00
2023-05-08T06:20:59.173Z,16.07
2023-05-08T06:23:28.555Z,13.83
2023-05-08T06:25:58.063Z,18.70
2023-05-08T06:28:26.585Z,18.27
2023-05-08T06:30:55.295Z,18.87
2023-05-08T06:33:26.098Z,15.90
2023-05-08T06:35:59.973Z,16.40
2023-05-08T06:38:32.178Z,19.80
2023-05-08T06:41:03.197Z,18.30
2023-05-08T06:43:31.831Z,17.37
2023-05-08T06:46:07.971Z,14.83
2023-05-08T06:48:36.325Z,17.70
2023-05-08T06:51:04.931Z,18.37
2023-05-08T06:53:34.794Z,15.77
2023-05-08T06:56:02.989Z,21.33
2023-05-08T06:58:32.316Z,18.80
2023-05-08T07:01:01.173Z,16.13
2023-05-08T07:03:29.891Z,16.30
2023-05-08T07:05:58.284Z,18.10
2023-05-08T07:08:26.584Z,19.33
2023-05-08T07:10:56.285Z,18.60
2023-05-08T07:13:24.771Z,19.47
2023-05-08T07:15:55.050Z,15.63
2023-05-08T07:18:23.748Z,18.70
2023-05-08T07:20:52.285Z,19.13
2023-05-08T07:23:23.801Z,18.07
2023-05-08T07:25:51.970Z,15.37
2023-05-08T07:28:21.478Z,18.27
2023-05-08T07:30:50.239Z,18.97
2023-05-08T07:33:18.789Z,17.63
2023-05-08T07:35:56.356Z,17.20
2023-05-08T07:38:24.899Z,16.30
2023-05-08T07:40:57.183Z,19.73
2023-05-08T07:43:27.285Z,18.80
2023-05-08T07:45:55.713Z,18.37
2023-05-08T07:48:24.150Z,18.37
2023-05-08T07:50:52.439Z,19.97
2023-05-08T07:53:21.325Z,17.30
2023-05-08T07:55:50.287Z,16.67
2023-05-08T07:58:18.548Z,20.20
2023-05-08T08:00:48.489Z,22.67
2023-05-08T08:03:18.454Z,19.10
2023-05-08T08:05:46.876Z,19.80
2023-05-08T08:08:15.062Z,20.40
2023-05-08T08:10:43.307Z,19.47
2023-05-08T08:13:11.554Z,18.83
2023-05-08T08:15:39.910Z,19.70
2023-05-08T08:18:09.784Z,17.13
2023-05-08T08:20:38.909Z,15.17
2023-05-08T08:23:07.643Z,17.33
2023-05-08T08:25:35.867Z,20.33
2023-05-08T08:28:04.009Z,19.43
2023-05-08T08:30:32.490Z,18.67
2023-05-08T08:33:02.524Z,20.83
2023-05-08T08:35:33.745Z,17.53
2023-05-08T08:38:02.465Z,17.33
2023-05-08T08:40:32.794Z,17.67
2023-05-08T08:43:01.232Z,17.77
2023-05-08T08:45:31.963Z,17.27
2023-05-08T08:48:06.492Z,17.57
2023-05-08T08:50:40.358Z,15.37
2023-05-08T08:53:17.452Z,19.73
2023-05-08T08:55:52.761Z,20.63
2023-05-08T08:58:27.907Z,18.60
2023-05-08T09:00:57.229Z,18.70
2023-05-08T09:03:32.499Z,17.10
2023-05-08T09:06:02.951Z,18.53
2023-05-08T09:08:37.106Z,15.70
2023-05-08T09:11:06.445Z,21.97
2023-05-08T09:13:40.032Z,18.03
2023-05-08T09:16:12.950Z,20.57
2023-05-08T09:18:42.215Z,17.73
2023-05-08T09:21:17.001Z,17.63
2023-05-08T09:23:56.928Z,16.83
2023-05-08T09:26:29.397Z,18.23
2023-05-08T09:29:10.609Z,17.73
2023-05-08T09:31:40.929Z,23.33
2023-05-08T09:34:12.415Z,17.20
2023-05-08T09:36:42.261Z,20.17
2023-05-08T09:39:14.124Z,17.13
2023-05-08T09:41:59.262Z,24.67
2023-05-08T09:44:28.993Z,16.73
2023-05-08T09:47:12.206Z,17.37
2023-05-08T09:49:45.942Z,20.20
2023-05-08T09:52:17.494Z,17.70
2023-05-08T09:54:49.408Z,16.37
2023-05-08T09:57:22.284Z,19.43
2023-05-08T10:00:06.133Z,20.60
2023-05-08T10:02:36.172Z,20.67
2023-05-08T10:05:05.986Z,17.47
2023-05-08T10:07:38.611Z,17.00
2023-05-08T10:10:11.178Z,18.70
2023-05-08T10:12:40.408Z,17.07
2023-05-08T10:15:10.103Z,17.70
2023-05-08T10:17:48.969Z,17.77
2023-05-08T10:20:22.472Z,17.43
2023-05-08T10:22:57.486Z,18.53
2023-05-08T10:25:29.467Z,18.83
2023-05-08T10:28:09.576Z,16.93
2023-05-08T10:30:39.983Z,18.93
2023-05-08T10:33:17.785Z,18.33
2023-05-08T10:35:48.133Z,20.10
2023-05-08T10:38:18.587Z,18.90
2023-05-08T10:40:50.704Z,20.27
2023-05-08T10:43:19.944Z,23.33
2023-05-08T10:45:52.996Z,22.57
2023-05-08T10:48:31.435Z,22.50
2023-05-08T10:51:08.082Z,22.53
2023-05-08T10:53:45.408Z,18.27
2023-05-08T10:56:13.760Z,20.43
2023-05-08T10:58:42.216Z,18.67
2023-05-08T11:01:15.404Z,21.33
2023-05-08T11:03:50.681Z,19.03
2023-05-08T11:06:39.842Z,19.90
2023-05-08T11:09:09.662Z,22.70
2023-05-08T11:11:40.249Z,21.87
2023-05-08T11:14:14.865Z,18.27
2023-05-08T11:17:07.129Z,20.57
2023-05-08T11:19:35.842Z,20.33
2023-05-08T11:22:21.793Z,20.50
2023-05-08T11:24:55.772Z,21.33
2023-05-08T11:28:20.471Z,20.97
2023-05-08T11:30:48.570Z,20.07
2023-05-08T11:33:18.323Z,20.43
2023-05-08T11:35:56.137Z,22.07
2023-05-08T11:38:32.857Z,20.63
2023-05-08T11:41:04.899Z,23.00
2023-05-08T11:43:59.701Z,23.03
2023-05-08T11:46:39.388Z,21.70
2023-05-08T11:49:11.615Z,23.43
2023-05-08T11:51:44.878Z,20.17
2023-05-08T11:54:18.207Z,20.87
2023-05-08T11:56:52.020Z,20.23
2023-05-08T11:59:20.678Z,20.33
2023-05-08T12:02:06.893Z,23.37
2023-05-08T12:04:45.558Z,20.60
2023-05-08T12:07:14.260Z,23.20
2023-05-08T12:09:42.509Z,21.57
2023-05-08T12:12:12.088Z,19.50
2023-05-08T12:14:40.164Z,21.73
2023-05-08T12:17:08.405Z,18.17
2023-05-08T12:19:36.697Z,18.50
2023-05-08T12:22:04.953Z,20.33
2023-05-08T12:24:33.146Z,21.20
2023-05-08T12:27:01.882Z,19.70
2023-05-08T12:29:31.719Z,21.50
2023-05-08T12:32:00.038Z,18.47
2023-05-08T12:34:28.982Z,18.07
2023-05-08T12:37:06.670Z,19.80
2023-05-08T12:39:37.874Z,17.87
2023-05-08T12:42:06.336Z,19.93
2023-05-08T12:44:36.986Z,21.27
2023-05-08T12:47:07.115Z,19.57
2023-05-08T12:49:35.533Z,22.13
2023-05-08T12:52:05.596Z,17.63
2023-05-08T12:54:35.472Z,20.35
2023-05-08T12:57:12.905Z,15.70
2023-05-08T12:59:43.702Z,15.93
2023-05-08T13:02:18.743Z,16.92
2023-05-08T13:04:47.653Z,16.02
2023-05-08T13:07:16.228Z,15.43
2023-05-08T13:09:58.482Z,14.27
2023-05-08T13:12:26.861Z,13.93
2023-05-08T13:14:56.477Z,16.63
2023-05-08T13:17:25.025Z,16.58
2023-05-08T13:19:53.590Z,14.88
2023-05-08T13:22:26.721Z,14.85
2023-05-08T13:24:57.659Z,14.68
2023-05-08T13:27:26.054Z,15.25
2023-05-08T13:29:55.580Z,14.75
2023-05-08T13:32:25.463Z,15.45
2023-05-08T13:34:56.427Z,13.60
2023-05-08T13:37:27.339Z,19.13
2023-05-08T13:39:55.540Z,14.13
2023-05-08T13:42:23.730Z,17.25
2023-05-08T13:44:52.792Z,18.85
2023-05-08T13:47:21.099Z,14.55
2023-05-08T13:49:50.922Z,17.55
2023-05-08T13:52:19.235Z,17.10
2023-05-08T13:54:47.493Z,16.38
2023-05-08T13:57:15.709Z,18.63
2023-05-08T13:59:44.361Z,16.23
2023-05-08T14:02:12.706Z,14.73
2023-05-08T14:04:41.281Z,17.35
2023-05-08T14:07:11.195Z,14.70
2023-05-08T14:09:41.847Z,17.47
2023-05-08T14:12:10.124Z,18.97
2023-05-08T14:14:39.233Z,16.97
2023-05-08T14:17:08.103Z,16.23
2023-05-08T14:19:36.625Z,18.60
2023-05-08T14:22:04.873Z,17.57
2023-05-08T14:24:34.651Z,18.40
2023-05-08T14:27:06.424Z,16.83
2023-05-08T14:29:35.879Z,18.33
2023-05-08T14:32:04.266Z,19.13
2023-05-08T14:34:32.501Z,20.40
2023-05-08T14:37:00.980Z,20.87
2023-05-08T14:39:29.645Z,19.27
2023-05-08T14:42:14.224Z,20.47
2023-05-08T14:44:48.245Z,21.60
2023-05-08T14:47:16.476Z,20.50
2023-05-08T14:49:44.707Z,21.13
2023-05-08T14:52:12.907Z,16.57
2023-05-08T14:54:42.231Z,21.27
2023-05-08T14:57:14.372Z,20.47
2023-05-08T14:59:49.348Z,20.93
2023-05-08T15:02:23.165Z,24.63
2023-05-08T15:04:51.749Z,17.93
2023-05-08T15:07:20.065Z,16.53
2023-05-08T15:09:48.918Z,18.63
2023-05-08T15:12:18.726Z,19.43
2023-05-08T15:14:47.259Z,18.13
2023-05-08T15:17:15.758Z,19.37
2023-05-08T15:19:45.889Z,19.30
2023-05-08T15:22:14.547Z,23.17
2023-05-08T15:24:42.978Z,20.67
2023-05-08T15:27:11.906Z,17.47
2023-05-08T15:29:41.714Z,18.97
2023-05-08T15:32:10.543Z,21.27
2023-05-08T15:34:40.757Z,18.37
2023-05-08T15:37:09.294Z,18.63
2023-05-08T15:39:37.512Z,24.43
2023-05-08T15:42:06.847Z,21.43
2023-05-08T15:44:53.316Z,20.60
2023-05-08T15:47:24.159Z,17.33
2023-05-08T15:49:52.435Z,18.00
2023-05-08T15:52:20.835Z,20.97
2023-05-08T15:54:49.470Z,19.80
2023-05-08T15:57:18.248Z,19.90
2023-05-08T15:59:46.660Z,17.60
2023-05-08T16:02:14.829Z,18.60
2023-05-08T16:04:45.107Z,19.27
2023-05-08T16:07:13.645Z,18.23
2023-05-08T16:09:42.205Z,18.43
2023-05-08T16:12:11.130Z,18.57
2023-05-08T16:14:39.414Z,16.53
2023-05-08T16:17:08.916Z,15.47
2023-05-08T16:19:38.963Z,17.90
2023-05-08T16:22:08.561Z,17.93
2023-05-08T16:24:36.712Z,19.50
2023-05-08T16:27:05.293Z,18.50
2023-05-08T16:29:33.486Z,19.13
2023-05-08T16:32:01.808Z,17.53
2023-05-08T16:34:29.910Z,14.90
2023-05-08T16:36:58.566Z,23.00
2023-05-08T16:39:28.271Z,27.60
2023-05-08T16:41:56.656Z,24.13
2023-05-08T16:44:25.030Z,21.53
2023-05-08T16:46:53.370Z,16.33
2023-05-08T16:49:25.260Z,16.47
2023-05-08T16:51:53.546Z,15.23
2023-05-08T16:54:21.694Z,17.53
2023-05-08T16:56:51.557Z,16.53
2023-05-08T16:59:20.237Z,18.87
2023-05-08T17:01:48.566Z,16.20
2023-05-08T17:04:16.863Z,17.77
2023-05-08T17:06:45.110Z,19.80
2023-05-08T17:09:13.294Z,15.90
2023-05-08T17:11:41.698Z,14.87
2023-05-08T17:14:11.494Z,20.00
2023-05-08T17:16:40.742Z,19.33
2023-05-08T17:19:09.638Z,16.23
2023-05-08T17:21:37.939Z,16.17
2023-05-08T17:24:06.832Z,16.27
2023-05-08T17:26:35.158Z,16.03
2023-05-08T17:29:03.581Z,15.30
2023-05-08T17:31:34.429Z,12.30
2023-05-08T17:34:02.708Z,15.13
2023-05-08T17:36:31.124Z,15.47
2023-05-08T17:38:59.484Z,16.90
2023-05-08T17:41:27.739Z,16.17
2023-05-08T17:43:56.253Z,16.27
2023-05-08T17:46:24.651Z,13.73
2023-05-08T17:48:54.704Z,15.83
2023-05-08T17:51:23.023Z,17.47
2023-05-08T17:53:53.293Z,16.67
2023-05-08T17:56:23.349Z,15.53
2023-05-08T17:58:53.317Z,15.90
2023-05-08T18:01:21.838Z,14.70
2023-05-08T18:03:50.216Z,15.10
2023-05-08T18:06:20.655Z,18.80
2023-05-08T18:08:49.656Z,16.83
2023-05-08T18:11:19.328Z,17.57
2023-05-08T18:13:47.822Z,14.50
2023-05-08T18:16:22.294Z,15.57
2023-05-08T18:18:51.053Z,18.33
2023-05-08T18:21:22.462Z,14.00
2023-05-08T18:23:50.895Z,16.30
2023-05-08T18:26:19.655Z,14.80
2023-05-08T18:28:48.192Z,15.57
2023-05-08T18:31:16.966Z,19.83
2023-05-08T18:33:45.888Z,19.67
2023-05-08T18:36:18.212Z,15.70
2023-05-08T18:38:48.925Z,21.13
2023-05-08T18:41:17.492Z,18.07
2023-05-08T18:43:47.699Z,23.53
2023-05-08T18:46:18.284Z,20.40
2023-05-08T18:48:49.055Z,25.97
2023-05-08T18:51:17.280Z,42.50
2023-05-08T18:53:51.823Z,16.90
2023-05-08T18:56:21.319Z,18.73
2023-05-08T18:58:49.924Z,19.90
2023-05-08T19:01:20.341Z,18.53
2023-05-08T19:03:50.094Z,36.27
2023-05-08T19:06:19.147Z,23.40
2023-05-08T19:08:48.863Z,15.33
2023-05-08T19:11:17.108Z,17.80
2023-05-08T19:13:45.335Z,15.80
2023-05-08T19:16:13.884Z,14.20
2023-05-08T19:18:43.181Z,15.63
2023-05-08T19:21:11.712Z,18.10
2023-05-08T19:23:40.074Z,17.80
2023-05-08T19:26:09.808Z,14.60
2023-05-08T19:28:38.296Z,16.73
2023-05-08T19:31:07.369Z,16.77
2023-05-08T19:33:38.034Z,14.10
2023-05-08T19:36:06.814Z,13.13
2023-05-08T19:38:37.504Z,14.50
2023-05-08T19:41:05.820Z,14.67
2023-05-08T19:43:35.493Z,14.57
2023-05-08T19:46:03.644Z,13.57
2023-05-08T19:48:32.039Z,15.57
2023-05-08T19:51:06.807Z,12.67
2023-05-08T19:53:34.976Z,14.10
2023-05-08T19:56:03.251Z,14.70
2023-05-08T19:58:31.755Z,11.87
2023-05-08T20:01:01.800Z,15.20
2023-05-08T20:03:30.214Z,15.27
2023-05-08T20:05:58.507Z,15.67
2023-05-08T20:08:29.503Z,11.13
2023-05-08T20:11:02.408Z,15.57
2023-05-08T20:13:30.906Z,15.50
2023-05-08T20:15:59.591Z,17.27
2023-05-08T20:18:29.204Z,13.53
2023-05-08T20:20:57.534Z,14.57
2023-05-08T20:23:25.817Z,14.87
2023-05-08T20:25:54.243Z,16.50
2023-05-08T20:28:26.125Z,14.07
2023-05-08T20:30:54.657Z,15.27
2023-05-08T20:33:22.938Z,18.20
2023-05-08T20:35:54.366Z,20.67
2023-05-08T20:38:22.805Z,16.90
2023-05-08T20:40:51.157Z,18.37
2023-05-08T20:43:19.571Z,18.20
2023-05-08T20:45:49.273Z,14.60
2023-05-08T20:48:17.529Z,17.47
2023-05-08T20:50:45.760Z,15.37
2023-05-08T20:53:15.305Z,17.07
2023-05-08T20:55:43.462Z,20.60
2023-05-08T20:58:11.738Z,17.07
2023-05-08T21:00:40.162Z,20.30
2023-05-08T21:03:08.321Z,19.73
2023-05-08T21:05:36.559Z,17.20
2023-05-08T21:08:06.332Z,18.17
2023-05-08T21:10:36.081Z,22.63
2023-05-08T21:13:05.543Z,21.97
2023-05-08T21:15:35.120Z,22.30
2023-05-08T21:18:03.277Z,20.23
2023-05-08T21:20:33.928Z,22.30
2023-05-08T21:23:02.500Z,24.83
2023-05-08T21:25:30.898Z,20.83
2023-05-08T21:28:00.404Z,24.77
2023-05-08T21:30:28.551Z,23.53
2023-05-08T21:32:56.967Z,23.93
2023-05-08T21:35:25.122Z,23.43
2023-05-08T21:37:54.659Z,27.13
2023-05-08T21:40:23.123Z,24.33
2023-05-08T21:42:51.220Z,23.07
2023-05-08T21:45:20.883Z,20.33
2023-05-08T21:48:09.123Z,24.47
2023-05-08T21:50:45.612Z,19.93
2023-05-08T21:53:13.821Z,21.93
2023-05-08T21:55:42.056Z,21.60
2023-05-08T21:58:10.200Z,25.43
2023-05-08T22:00:39.924Z,25.30
2023-05-08T22:03:08.232Z,23.33
2023-05-08T22:05:36.410Z,23.20
2023-05-08T22:08:04.653Z,23.23
2023-05-08T22:10:32.932Z,19.80
2023-05-08T22:13:01.859Z,22.50
2023-05-08T22:15:30.939Z,19.93
2023-05-08T22:18:02.666Z,21.67
2023-05-08T22:20:31.129Z,20.27
2023-05-08T22:22:59.201Z,22.07
2023-05-08T22:25:27.436Z,21.17
2023-05-08T22:27:55.628Z,23.53
2023-05-08T22:30:23.900Z,24.13
2023-05-08T22:32:56.306Z,21.27
2023-05-08T22:35:27.449Z,24.40
2023-05-08T22:37:57.354Z,24.57
2023-05-08T22:40:26.391Z,21.37
2023-05-08T22:42:55.980Z,24.07
2023-05-08T22:45:24.729Z,23.03
2023-05-08T22:47:53.007Z,22.17
2023-05-08T22:50:21.605Z,22.60
2023-05-08T22:52:51.168Z,19.63
2023-05-08T22:55:19.343Z,20.07
2023-05-08T22:57:47.529Z,21.17
2023-05-08T23:00:16.584Z,19.47
2023-05-08T23:02:44.973Z,19.83
2023-05-08T23:05:13.446Z,22.97
2023-05-08T23:07:41.956Z,21.30
2023-05-08T23:10:12.274Z,19.77
2023-05-08T23:12:40.369Z,19.03
2023-05-08T23:15:09.762Z,18.07
2023-05-08T23:17:37.956Z,21.87
2023-05-08T23:20:07.063Z,18.87
2023-05-08T23:22:35.135Z,19.83
2023-05-08T23:25:03.800Z,21.63
2023-05-08T23:27:33.198Z,17.07
2023-05-08T23:30:01.610Z,21.33
2023-05-08T23:32:29.768Z,15.93
2023-05-08T23:34:57.911Z,20.00
2023-05-08T23:37:26.166Z,18.97
2023-05-08T23:39:54.321Z,18.80
2023-05-08T23:42:22.537Z,19.20
2023-05-08T23:44:52.161Z,17.67
2023-05-08T23:47:21.133Z,17.40
2023-05-08T23:49:49.559Z,20.20
2023-05-08T23:52:18.874Z,19.07
2023-05-08T23:54:46.935Z,19.47
2023-05-08T23:57:15.217Z,18.60
2023-05-08T23:59:43.373Z,18.13
